Warsaw, North Dakota
Current Conditions -  °F | °C
As of 1:15 PM on Friday 24 Oct 2014 (Local Time) from KGAF Reporting Station
Clear Clear  
Wind Chill: 68°   Ceiling: Unl
Heat Index: 68°   Visibility: 10mi
Dew Point: 45°   Wind: 21mph
Humidity: 43%   Direction: 270°W
Pressure: 29.71"   Gusts: 29mph
Location:  48.3242°N, 97.2579°W
Report Text: KGAF 241815Z AUTO 27018G25KT 10SM CLR 20/07 A2971 RMK AO2
Loading
Personal Weather Stations






























Interactive Weather Map New forecast layout! Learn more

10-Day Weather Forecast

Advertisements
Track Severe Weather on mobile